Time;durP1;ratioP1;P1;durP2;ratioP2;P2;SDS_P1;SDS_P2;PMS_P1;PMS_P2;Temp;Humidity;BMP_temperature;BMP_pressure;BME280_temperature;BME280_humidity;BME280_pressure;Samples;Min_cycle;Max_cycle;Signal;HPM_P1;HPM_P2
2023/10/21 00:02:09;;;;;;;62.45;30.00;;;11.80;99.90;;;;;;5016879;28;20499;-73
2023/10/21 00:04:35;;;;;;;58.10;29.35;;;11.80;99.90;;;;;;5001602;28;20052;-73
2023/10/21 00:07:01;;;;;;;47.88;27.17;;;11.80;99.90;;;;;;5004990;28;20125;-73
2023/10/21 00:09:27;;;;;;;57.63;29.27;;;11.80;99.90;;;;;;4983556;28;20489;-73
2023/10/21 00:11:53;;;;;;;52.45;26.90;;;11.80;99.90;;;;;;5006245;28;20083;-73
2023/10/21 00:14:19;;;;;;;56.65;29.38;;;11.80;99.90;;;;;;5003103;28;20101;-73
2023/10/21 00:16:44;;;;;;;60.90;29.50;;;11.90;99.90;;;;;;5019321;28;20045;-73
2023/10/21 00:19:13;;;;;;;58.28;30.17;;;11.80;99.90;;;;;;4985030;28;20056;-73
2023/10/21 00:21:39;;;;;;;65.38;29.70;;;11.80;99.90;;;;;;5021487;28;20045;-73
2023/10/21 00:24:05;;;;;;;61.28;28.27;;;11.70;99.90;;;;;;5002129;28;20065;-73
2023/10/21 00:26:42;;;;;;;56.45;27.50;;;11.70;99.90;;;;;;5022154;28;20141;-73
2023/10/21 00:29:07;;;;;;;66.68;29.10;;;11.70;99.90;;;;;;5017545;28;20514;-74
2023/10/21 00:31:33;;;;;;;52.47;26.25;;;11.70;99.90;;;;;;4998868;28;20073;-73
2023/10/21 00:33:58;;;;;;;55.65;26.48;;;11.70;99.90;;;;;;5004250;28;20045;-73
2023/10/21 00:36:24;;;;;;;47.53;26.05;;;11.70;99.90;;;;;;5001505;28;20041;-73
2023/10/21 00:38:50;;;;;;;50.45;25.50;;;11.70;99.90;;;;;;5019302;28;20046;-73
2023/10/21 00:41:16;;;;;;;55.92;26.25;;;11.70;99.90;;;;;;5009819;28;20093;-73
2023/10/21 00:43:42;;;;;;;53.40;25.73;;;11.70;99.90;;;;;;5020824;28;20049;-73
2023/10/21 00:46:15;;;;;;;59.28;26.35;;;11.70;99.90;;;;;;5006183;28;20052;-73
2023/10/21 00:48:42;;;;;;;51.67;25.52;;;11.70;99.90;;;;;;5020453;28;21411;-73
2023/10/21 00:51:12;;;;;;;49.92;24.92;;;11.60;99.90;;;;;;5025202;28;20084;-73
2023/10/21 00:53:38;;;;;;;61.45;25.88;;;11.60;99.90;;;;;;5027013;28;20091;-73
2023/10/21 00:56:06;;;;;;;51.80;24.40;;;11.60;99.90;;;;;;5020927;28;20514;-73
2023/10/21 00:58:32;;;;;;;53.80;25.35;;;11.60;99.90;;;;;;5022430;28;20092;-73
2023/10/21 01:00:58;;;;;;;55.50;24.95;;;11.60;99.90;;;;;;5022303;28;20064;-73
2023/10/21 01:03:26;;;;;;;56.80;24.98;;;11.50;99.90;;;;;;5027230;28;20037;-73
2023/10/21 01:05:52;;;;;;;51.03;23.58;;;11.50;99.90;;;;;;5021729;28;20046;-73
2023/10/21 01:08:18;;;;;;;48.15;23.48;;;11.40;99.90;;;;;;5025393;28;20428;-73
2023/10/21 01:10:43;;;;;;;51.78;24.23;;;11.40;99.90;;;;;;5022319;28;20037;-73
2023/10/21 01:13:09;;;;;;;57.15;24.67;;;11.40;99.90;;;;;;5002374;28;20045;-73
2023/10/21 01:15:35;;;;;;;62.78;24.65;;;11.40;99.90;;;;;;5001296;28;20141;-73
2023/10/21 01:18:03;;;;;;;56.35;23.02;;;11.40;99.90;;;;;;5002202;28;20512;-73
2023/10/21 01:20:29;;;;;;;56.42;24.48;;;11.30;99.90;;;;;;5003333;28;20037;-73
2023/10/21 01:22:57;;;;;;;55.05;24.50;;;11.30;99.90;;;;;;5025542;28;20457;-73
2023/10/21 01:25:24;;;;;;;60.10;25.23;;;11.20;99.90;;;;;;5019170;28;20037;-73
2023/10/21 01:27:54;;;;;;;51.78;23.55;;;11.20;99.90;;;;;;5004931;28;20509;-73
2023/10/21 01:30:23;;;;;;;46.40;22.50;;;11.20;99.90;;;;;;5022888;28;20091;-73
2023/10/21 01:32:49;;;;;;;52.95;23.52;;;11.10;99.90;;;;;;5002622;28;20048;-73
2023/10/21 01:35:15;;;;;;;54.80;22.75;;;11.10;99.90;;;;;;4987783;28;20389;-73
2023/10/21 01:37:42;;;;;;;47.25;21.00;;;11.10;99.90;;;;;;5009262;28;20045;-73
2023/10/21 01:40:11;;;;;;;51.05;21.73;;;11.10;99.90;;;;;;5005554;28;20444;-72
2023/10/21 01:42:40;;;;;;;50.42;20.73;;;11.20;99.90;;;;;;5002724;28;20042;-73
2023/10/21 01:45:07;;;;;;;41.85;19.10;;;11.20;99.90;;;;;;5001685;28;20121;-73
2023/10/21 01:47:34;;;;;;;45.92;19.95;;;11.20;99.90;;;;;;5006407;28;20421;-73
2023/10/21 01:50:00;;;;;;;43.10;18.98;;;11.20;99.90;;;;;;5005026;28;20129;-73
2023/10/21 01:52:25;;;;;;;39.70;18.42;;;11.20;99.90;;;;;;5023468;28;20512;-73
2023/10/21 01:54:54;;;;;;;46.90;19.05;;;11.20;99.90;;;;;;5003398;28;20033;-72
2023/10/21 01:57:20;;;;;;;39.50;17.85;;;11.20;99.90;;;;;;5003436;28;21421;-73
2023/10/21 01:59:46;;;;;;;35.20;17.33;;;11.20;99.90;;;;;;5000814;28;20058;-72
2023/10/21 02:02:12;;;;;;;40.55;18.10;;;11.20;99.90;;;;;;5005147;28;20056;-72
2023/10/21 02:04:38;;;;;;;44.08;18.08;;;11.20;99.90;;;;;;5024114;28;20386;-72
2023/10/21 02:07:04;;;;;;;34.90;17.90;;;11.20;99.90;;;;;;5025604;28;20045;-72
2023/10/21 02:09:29;;;;;;;43.53;18.52;;;11.20;99.90;;;;;;5018291;28;20048;-72
2023/10/21 02:11:55;;;;;;;39.05;18.00;;;11.20;99.90;;;;;;5024195;28;20044;-73
2023/10/21 02:14:22;;;;;;;43.85;18.45;;;11.20;99.90;;;;;;5003982;28;20037;-73
2023/10/21 02:16:52;;;;;;;38.28;18.30;;;11.20;99.90;;;;;;5014879;28;20420;-72
2023/10/21 02:19:19;;;;;;;39.53;18.50;;;11.10;99.90;;;;;;5022397;28;20124;-72
2023/10/21 02:21:44;;;;;;;44.58;19.80;;;11.10;99.90;;;;;;5000791;28;20054;-73
2023/10/21 02:24:10;;;;;;;40.90;17.98;;;11.10;99.90;;;;;;5003984;28;20081;-72
2023/10/21 02:26:36;;;;;;;44.25;17.67;;;11.10;99.90;;;;;;5003647;28;20057;-72
2023/10/21 02:29:02;;;;;;;40.58;17.40;;;11.00;99.90;;;;;;5022241;28;20421;-72
2023/10/21 02:31:27;;;;;;;41.83;17.90;;;11.00;99.90;;;;;;5022866;28;20041;-72
2023/10/21 02:33:53;;;;;;;53.97;18.17;;;11.00;99.90;;;;;;5002769;28;20045;-72
2023/10/21 02:36:18;;;;;;;38.03;17.50;;;11.00;99.90;;;;;;5003906;28;20044;-72
2023/10/21 02:38:45;;;;;;;33.13;16.65;;;11.00;99.90;;;;;;5020696;28;20042;-72
2023/10/21 02:41:10;;;;;;;41.65;17.73;;;11.00;99.90;;;;;;5025664;28;20030;-72
2023/10/21 02:43:36;;;;;;;43.90;16.83;;;11.00;99.90;;;;;;5005604;28;20048;-72
2023/10/21 02:46:12;;;;;;;34.83;15.60;;;11.00;99.90;;;;;;5001709;28;20133;-72
2023/10/21 02:48:39;;;;;;;34.95;16.38;;;11.00;99.90;;;;;;5004664;28;20060;-72
2023/10/21 02:51:09;;;;;;;32.45;16.92;;;11.00;99.90;;;;;;5024298;28;20069;-72
2023/10/21 02:53:36;;;;;;;33.03;15.25;;;11.00;99.90;;;;;;4985887;28;20085;-72
2023/10/21 02:56:05;;;;;;;37.83;15.85;;;11.00;99.90;;;;;;4991301;28;20041;-72
2023/10/21 02:58:31;;;;;;;37.28;16.60;;;11.00;99.90;;;;;;5022808;28;20049;-72
2023/10/21 03:00:56;;;;;;;34.72;15.45;;;11.00;99.90;;;;;;5003189;28;20160;-72
2023/10/21 03:03:22;;;;;;;32.03;14.38;;;11.00;99.90;;;;;;5020542;28;20552;-72
2023/10/21 03:05:48;;;;;;;25.85;14.05;;;11.00;99.90;;;;;;5005529;28;20041;-72
2023/10/21 03:08:14;;;;;;;26.92;14.25;;;11.00;99.90;;;;;;5004117;28;20052;-72
2023/10/21 03:10:40;;;;;;;28.50;14.65;;;11.00;99.90;;;;;;5004124;28;20045;-72
2023/10/21 03:13:06;;;;;;;29.55;14.15;;;11.10;99.90;;;;;;5000047;28;20378;-72
2023/10/21 03:15:33;;;;;;;29.92;14.55;;;11.10;99.90;;;;;;5000958;28;20501;-72
2023/10/21 03:17:59;;;;;;;27.98;13.70;;;11.10;99.90;;;;;;5004081;28;20095;-72
2023/10/21 03:20:25;;;;;;;28.77;13.50;;;11.10;99.90;;;;;;5003035;28;20404;-72
2023/10/21 03:22:50;;;;;;;24.83;13.75;;;11.00;99.90;;;;;;5003541;28;20049;-72
2023/10/21 03:25:17;;;;;;;26.55;13.40;;;11.10;99.90;;;;;;5022143;28;20505;-72
2023/10/21 03:27:43;;;;;;;26.35;13.35;;;11.00;99.90;;;;;;4999693;28;20117;-72
2023/10/21 03:30:09;;;;;;;27.73;13.77;;;11.10;99.90;;;;;;4987307;28;20120;-72
2023/10/21 03:32:35;;;;;;;21.52;12.30;;;11.10;99.90;;;;;;5002893;28;20049;-72
2023/10/21 03:35:01;;;;;;;29.23;13.30;;;11.00;99.90;;;;;;5002768;28;20069;-72
2023/10/21 03:37:27;;;;;;;28.58;13.40;;;11.00;99.90;;;;;;5004600;28;20052;-72
2023/10/21 03:39:52;;;;;;;25.35;12.82;;;11.00;99.90;;;;;;5001746;28;20405;-72
2023/10/21 03:42:18;;;;;;;23.42;13.50;;;11.00;99.90;;;;;;4999963;28;20113;-72
2023/10/21 03:44:44;;;;;;;21.42;12.80;;;11.00;99.90;;;;;;5000745;28;20054;-72
2023/10/21 03:47:09;;;;;;;22.10;12.30;;;10.90;99.90;;;;;;5001028;28;20076;-72
2023/10/21 03:49:35;;;;;;;25.30;13.35;;;10.90;99.90;;;;;;5003246;28;20048;-72
2023/10/21 03:52:00;;;;;;;22.55;11.95;;;10.90;99.90;;;;;;4999338;28;20145;-72
2023/10/21 03:54:26;;;;;;;30.63;12.88;;;10.90;99.90;;;;;;5004814;28;20061;-72
2023/10/21 03:56:53;;;;;;;26.98;11.98;;;10.90;99.90;;;;;;5003675;28;20053;-72
2023/10/21 03:59:19;;;;;;;22.98;12.07;;;10.90;99.90;;;;;;4985103;28;20056;-72
2023/10/21 04:01:45;;;;;;;24.58;11.50;;;10.90;99.90;;;;;;5001923;28;20125;-72
2023/10/21 04:04:11;;;;;;;20.33;12.05;;;10.80;99.90;;;;;;4987312;28;20076;-72
2023/10/21 04:06:36;;;;;;;20.95;12.10;;;10.80;99.90;;;;;;5006269;28;20067;-71
2023/10/21 04:09:02;;;;;;;21.92;12.57;;;10.80;99.90;;;;;;5006973;28;20067;-72
2023/10/21 04:11:28;;;;;;;22.27;11.63;;;10.80;99.90;;;;;;5018623;28;20133;-72
2023/10/21 04:13:54;;;;;;;25.35;12.02;;;10.80;99.90;;;;;;5001854;28;20132;-72
2023/10/21 04:16:19;;;;;;;19.13;11.77;;;10.80;99.90;;;;;;5004728;28;20048;-72
2023/10/21 04:18:45;;;;;;;23.50;11.32;;;10.80;99.90;;;;;;5006501;28;20136;-72
2023/10/21 04:21:10;;;;;;;21.13;10.73;;;10.80;99.90;;;;;;5005819;28;20037;-72
2023/10/21 04:23:36;;;;;;;21.13;10.80;;;10.80;99.90;;;;;;5020180;28;20287;-72
2023/10/21 04:26:05;;;;;;;24.38;11.65;;;10.80;99.90;;;;;;5025525;28;20596;-72
2023/10/21 04:28:31;;;;;;;18.67;10.50;;;10.80;99.90;;;;;;5019483;28;20050;-72
2023/10/21 04:30:56;;;;;;;17.15;10.93;;;10.80;99.90;;;;;;5022316;28;20034;-72
2023/10/21 04:33:22;;;;;;;22.85;11.25;;;10.70;99.90;;;;;;5020197;28;20083;-72
2023/10/21 04:35:47;;;;;;;20.23;10.90;;;10.70;99.90;;;;;;5021915;28;20053;-72
2023/10/21 04:38:13;;;;;;;20.10;10.13;;;10.70;99.90;;;;;;5024272;28;20042;-72
2023/10/21 04:40:39;;;;;;;21.45;10.85;;;10.70;99.90;;;;;;5026609;28;20662;-72
2023/10/21 04:43:04;;;;;;;21.05;10.93;;;10.70;99.90;;;;;;5023769;28;20045;-72
2023/10/21 04:45:30;;;;;;;20.20;11.80;;;10.60;99.90;;;;;;5002342;28;20037;-72
2023/10/21 04:47:56;;;;;;;22.65;11.27;;;10.70;99.90;;;;;;5021929;28;20401;-72
2023/10/21 04:50:21;;;;;;;23.80;10.98;;;10.60;99.90;;;;;;5024596;28;20435;-72
2023/10/21 04:52:47;;;;;;;27.75;11.57;;;10.60;99.90;;;;;;5018505;28;20282;-72
2023/10/21 04:55:13;;;;;;;20.52;11.48;;;10.60;99.90;;;;;;5020475;28;20100;-72
2023/10/21 04:57:38;;;;;;;23.40;11.98;;;10.60;99.90;;;;;;5024359;28;20402;-72
2023/10/21 05:00:05;;;;;;;21.88;12.65;;;10.50;99.90;;;;;;5008171;28;20046;-72
2023/10/21 05:02:31;;;;;;;28.33;11.90;;;10.60;99.90;;;;;;5023071;28;20200;-72
2023/10/21 05:04:56;;;;;;;30.25;13.40;;;10.50;99.90;;;;;;5005429;28;20264;-72
2023/10/21 05:07:22;;;;;;;21.02;12.43;;;10.50;99.90;;;;;;5026072;28;20157;-72
2023/10/21 05:09:47;;;;;;;24.60;13.18;;;10.50;99.90;;;;;;5024144;28;20044;-72
2023/10/21 05:12:13;;;;;;;28.17;14.10;;;10.50;99.90;;;;;;5003543;28;20037;-72
2023/10/21 05:14:38;;;;;;;27.08;13.40;;;10.50;99.90;;;;;;5020472;28;20041;-72
2023/10/21 05:17:05;;;;;;;31.20;14.15;;;10.50;99.90;;;;;;5020268;28;20045;-72
2023/10/21 05:19:31;;;;;;;27.80;14.50;;;10.50;99.90;;;;;;4999241;28;20049;-71
2023/10/21 05:21:56;;;;;;;24.40;13.88;;;10.50;99.90;;;;;;5006998;28;20030;-72
2023/10/21 05:24:22;;;;;;;27.80;14.15;;;10.50;99.90;;;;;;4991498;28;20041;-72
2023/10/21 05:26:47;;;;;;;31.08;15.25;;;10.50;99.90;;;;;;5020989;28;20493;-72
2023/10/21 05:29:13;;;;;;;30.27;15.10;;;10.50;99.90;;;;;;5004890;28;20061;-72
2023/10/21 05:31:39;;;;;;;34.83;16.88;;;10.50;99.90;;;;;;5003616;28;20041;-72
2023/10/21 05:34:04;;;;;;;28.35;16.50;;;10.50;99.90;;;;;;5025348;28;20510;-72
2023/10/21 05:36:30;;;;;;;32.78;16.67;;;10.50;99.90;;;;;;5002468;28;20501;-72
2023/10/21 05:38:56;;;;;;;40.78;17.65;;;10.50;99.90;;;;;;5022241;28;20100;-72
2023/10/21 05:41:22;;;;;;;36.85;18.13;;;10.50;99.90;;;;;;5006074;28;20128;-72
2023/10/21 05:43:48;;;;;;;44.20;18.88;;;10.50;99.90;;;;;;5024617;28;20188;-72
2023/10/21 05:46:13;;;;;;;36.92;20.80;;;10.50;99.90;;;;;;5021800;28;20117;-72
2023/10/21 05:48:39;;;;;;;36.63;19.08;;;10.50;99.90;;;;;;5022228;28;20122;-72
2023/10/21 05:51:05;;;;;;;45.90;19.95;;;10.40;99.90;;;;;;5021725;28;20042;-72
2023/10/21 05:53:30;;;;;;;41.95;19.80;;;10.40;99.90;;;;;;4999653;28;20052;-71
2023/10/21 05:55:57;;;;;;;43.38;21.95;;;10.40;99.90;;;;;;5018628;28;20054;-72
2023/10/21 05:58:23;;;;;;;41.63;20.90;;;10.40;99.90;;;;;;5009243;28;20052;-72
2023/10/21 06:00:49;;;;;;;42.70;21.58;;;10.40;99.90;;;;;;5024421;28;20034;-75
2023/10/21 06:03:15;;;;;;;43.58;21.75;;;10.40;99.90;;;;;;5016927;28;20053;-71
2023/10/21 06:05:41;;;;;;;45.65;22.55;;;10.40;99.90;;;;;;5017874;28;20058;-71
2023/10/21 06:08:07;;;;;;;50.20;21.83;;;10.40;99.90;;;;;;5009120;28;20131;-71
2023/10/21 06:10:37;;;;;;;48.38;22.83;;;10.40;99.90;;;;;;5000804;28;20118;-71
2023/10/21 06:13:03;;;;;;;45.13;22.75;;;10.40;99.90;;;;;;5023425;28;20041;-71
2023/10/21 06:15:29;;;;;;;43.55;22.65;;;10.40;99.90;;;;;;5000424;28;20054;-68
2023/10/21 06:17:55;;;;;;;45.20;22.02;;;10.40;99.90;;;;;;5003681;28;20040;-71
2023/10/21 06:20:20;;;;;;;46.75;23.50;;;10.40;99.90;;;;;;5005190;28;20552;-72
2023/10/21 06:22:47;;;;;;;48.22;24.15;;;10.30;99.90;;;;;;5004689;28;20072;-71
2023/10/21 06:25:14;;;;;;;46.22;23.90;;;10.40;99.90;;;;;;4998627;28;20060;-72
2023/10/21 06:27:40;;;;;;;51.28;24.85;;;10.40;99.90;;;;;;4986194;28;20772;-71
2023/10/21 06:30:06;;;;;;;45.63;22.67;;;10.40;99.90;;;;;;4983771;28;20038;-71
2023/10/21 06:32:32;;;;;;;46.20;23.98;;;10.40;99.90;;;;;;5004957;28;20072;-71
2023/10/21 06:34:57;;;;;;;44.42;23.08;;;10.40;99.90;;;;;;4990267;28;20512;-71
2023/10/21 06:37:23;;;;;;;52.38;24.92;;;10.40;99.90;;;;;;4989164;28;20089;-70
2023/10/21 06:39:49;;;;;;;47.10;22.52;;;10.40;99.90;;;;;;5003687;28;20080;-72
2023/10/21 06:42:15;;;;;;;46.33;23.73;;;10.50;99.90;;;;;;4987990;28;20575;-70
2023/10/21 06:44:41;;;;;;;45.25;22.67;;;10.50;99.90;;;;;;5017590;28;20053;-76
2023/10/21 06:47:07;;;;;;;44.85;21.70;;;10.50;99.90;;;;;;5018080;28;20057;-71
2023/10/21 06:49:32;;;;;;;41.53;21.80;;;10.60;99.90;;;;;;5016678;28;20058;-73
2023/10/21 06:51:58;;;;;;;40.22;21.30;;;10.60;99.90;;;;;;5022844;28;20038;-74
2023/10/21 06:54:24;;;;;;;46.67;23.80;;;10.70;99.90;;;;;;5000970;28;20485;-73
2023/10/21 06:56:50;;;;;;;41.75;22.83;;;10.70;99.90;;;;;;5017096;28;20087;-73
2023/10/21 06:59:15;;;;;;;41.80;23.15;;;10.80;99.90;;;;;;5019183;28;20185;-73
2023/10/21 07:01:41;;;;;;;41.25;23.10;;;10.90;99.90;;;;;;5019021;28;20037;-72
2023/10/21 07:04:10;;;;;;;48.08;23.88;;;10.90;99.90;;;;;;5001912;28;20046;-73
2023/10/21 07:06:36;;;;;;;41.28;22.75;;;11.00;99.90;;;;;;5004285;28;20084;-73
2023/10/21 07:09:02;;;;;;;42.75;24.02;;;11.10;99.90;;;;;;5003339;28;20057;-71
2023/10/21 07:11:28;;;;;;;47.17;24.80;;;11.20;99.90;;;;;;5003124;28;20575;-75
2023/10/21 07:13:54;;;;;;;41.22;23.67;;;11.20;99.90;;;;;;4986600;28;20037;-73
2023/10/21 07:16:19;;;;;;;50.85;25.13;;;11.20;99.90;;;;;;4985593;28;20288;-78
2023/10/21 07:18:45;;;;;;;42.17;22.75;;;11.20;99.90;;;;;;5027007;28;20037;-74
2023/10/21 07:21:11;;;;;;;47.20;24.20;;;11.30;99.90;;;;;;5023664;28;20044;-74
2023/10/21 07:23:40;;;;;;;43.97;23.63;;;11.30;99.90;;;;;;5019298;28;21139;-73
2023/10/21 07:26:06;;;;;;;44.28;23.25;;;11.30;99.90;;;;;;5021894;28;20044;-76
2023/10/21 07:28:33;;;;;;;42.45;23.15;;;11.40;99.90;;;;;;5022982;28;20136;-75
2023/10/21 07:31:00;;;;;;;45.67;22.50;;;11.40;99.90;;;;;;5021108;28;20049;-74
2023/10/21 07:33:26;;;;;;;43.88;21.05;;;11.50;99.90;;;;;;5005963;28;20042;-75
2023/10/21 07:35:52;;;;;;;33.35;20.60;;;11.50;99.90;;;;;;5001540;28;20053;-73
2023/10/21 07:38:19;;;;;;;38.95;21.02;;;11.50;99.90;;;;;;5006070;28;20057;-73
2023/10/21 07:40:45;;;;;;;35.45;19.20;;;11.60;99.90;;;;;;4999276;28;20115;-76
2023/10/21 07:43:11;;;;;;;33.80;19.60;;;11.60;99.90;;;;;;4991193;28;20053;-76
2023/10/21 07:45:40;;;;;;;34.55;19.90;;;11.70;99.90;;;;;;5022900;28;20029;-73
2023/10/21 07:48:07;;;;;;;33.65;20.70;;;11.70;99.90;;;;;;5020432;28;20053;-74
2023/10/21 07:50:33;;;;;;;30.17;17.83;;;11.70;99.90;;;;;;5006636;28;20045;-75
2023/10/21 07:52:59;;;;;;;34.53;19.08;;;11.80;99.90;;;;;;5019854;28;20054;-73
2023/10/21 07:55:25;;;;;;;31.67;17.90;;;11.90;99.90;;;;;;5025281;28;20079;-69
2023/10/21 07:57:50;;;;;;;29.98;17.10;;;11.90;99.90;;;;;;5022420;28;20057;-69
2023/10/21 08:00:16;;;;;;;32.88;17.40;;;12.00;99.90;;;;;;5008076;28;20069;-68
2023/10/21 08:02:42;;;;;;;30.08;17.08;;;12.10;99.90;;;;;;5001443;28;20400;-72
2023/10/21 08:05:08;;;;;;;29.05;17.55;;;12.20;99.90;;;;;;5003890;28;20103;-71
2023/10/21 08:07:35;;;;;;;30.98;16.85;;;12.20;99.90;;;;;;5005014;28;20037;-82
2023/10/21 08:10:04;;;;;;;30.13;17.73;;;12.20;99.90;;;;;;5003211;28;20049;-74
2023/10/21 08:12:34;;;;;;;27.25;16.00;;;12.30;99.90;;;;;;5022833;28;20040;-75
2023/10/21 08:15:04;;;;;;;27.35;15.82;;;12.40;99.90;;;;;;5024054;28;20052;-76
2023/10/21 08:17:30;;;;;;;24.60;15.35;;;12.50;99.90;;;;;;4998227;28;20496;-71
2023/10/21 08:19:56;;;;;;;23.88;14.55;;;12.50;99.90;;;;;;5023914;28;20064;-72
2023/10/21 08:22:22;;;;;;;25.50;15.82;;;12.50;99.90;;;;;;5022414;28;20430;-68
2023/10/21 08:24:47;;;;;;;25.75;14.20;;;12.60;99.90;;;;;;5021829;28;20508;-75
2023/10/21 08:27:13;;;;;;;26.13;14.63;;;12.60;99.90;;;;;;5005231;28;20045;-71
2023/10/21 08:29:39;;;;;;;23.85;15.32;;;12.70;99.90;;;;;;5019207;28;20530;-73
2023/10/21 08:32:05;;;;;;;25.55;14.25;;;12.70;99.90;;;;;;5019884;28;20497;-71
2023/10/21 08:34:32;;;;;;;22.25;15.23;;;12.70;99.90;;;;;;5027562;28;20132;-72
2023/10/21 08:36:57;;;;;;;23.30;15.13;;;12.80;99.90;;;;;;5007532;28;20092;-71
2023/10/21 08:39:23;;;;;;;24.10;14.45;;;12.80;99.90;;;;;;5022176;28;20481;-71
2023/10/21 08:41:50;;;;;;;23.35;15.68;;;12.90;99.90;;;;;;5024372;28;20049;-72
2023/10/21 08:44:18;;;;;;;21.65;15.90;;;12.90;99.90;;;;;;5019028;28;20511;-77
2023/10/21 08:46:44;;;;;;;23.92;14.98;;;12.90;99.90;;;;;;5018155;28;20071;-72
2023/10/21 08:49:12;;;;;;;24.30;14.65;;;13.00;99.90;;;;;;5003102;28;20555;-73
2023/10/21 08:51:38;;;;;;;25.23;15.07;;;13.10;99.90;;;;;;5020803;28;20421;-75
2023/10/21 08:54:04;;;;;;;17.55;14.35;;;13.10;99.90;;;;;;5021493;28;20042;-71
2023/10/21 08:56:33;;;;;;;23.02;14.45;;;13.20;99.90;;;;;;4985166;28;20072;-72
2023/10/21 08:59:00;;;;;;;21.65;13.57;;;13.20;99.90;;;;;;5001022;28;20077;-71
2023/10/21 09:01:26;;;;;;;22.52;12.82;;;13.20;99.90;;;;;;5002751;28;20054;-69
2023/10/21 09:03:52;;;;;;;17.63;11.43;;;13.30;99.90;;;;;;5018929;28;20044;-73
2023/10/21 09:06:18;;;;;;;21.02;12.85;;;13.30;99.90;;;;;;5000775;28;20072;-72
2023/10/21 09:08:45;;;;;;;17.63;10.77;;;13.50;99.90;;;;;;5003659;28;20427;-72
2023/10/21 09:11:14;;;;;;;16.52;10.23;;;13.50;99.90;;;;;;5018130;28;20045;-71
2023/10/21 09:13:41;;;;;;;20.77;10.02;;;13.60;99.90;;;;;;5019305;28;20386;-71
2023/10/21 09:16:20;;;;;;;15.23;8.95;;;13.70;99.90;;;;;;5019232;28;20367;-69
2023/10/21 09:19:08;;;;;;;14.30;8.43;;;13.80;99.90;;;;;;5016704;28;20413;-72
2023/10/21 09:21:39;;;;;;;17.80;8.70;;;13.90;99.90;;;;;;5020628;28;20049;-71
2023/10/21 09:24:22;;;;;;;12.77;8.18;;;13.90;99.90;;;;;;5004788;28;20063;-71
2023/10/21 09:26:48;;;;;;;;;;;13.90;99.90;;;;;;5020491;28;20386;-70
2023/10/21 09:29:19;;;;;;;14.50;8.82;;;14.00;99.90;;;;;;5019918;28;19928;-73
2023/10/21 09:31:47;;;;;;;14.00;7.53;;;14.10;99.90;;;;;;5018714;28;20045;-70
2023/10/21 09:34:30;;;;;;;15.02;7.13;;;14.20;99.90;;;;;;5018933;28;20037;-69
2023/10/21 09:36:59;;;;;;;13.63;7.72;;;14.30;99.90;;;;;;5017827;28;20161;-71
2023/10/21 09:39:26;;;;;;;11.13;7.28;;;14.30;99.90;;;;;;5001911;28;21328;-72
2023/10/21 09:41:52;;;;;;;11.57;7.20;;;14.20;99.90;;;;;;4986940;28;20050;-71
2023/10/21 09:44:19;;;;;;;12.25;7.20;;;14.20;99.90;;;;;;5021166;28;20088;-70
2023/10/21 09:46:46;;;;;;;14.07;6.72;;;14.20;99.90;;;;;;5022061;28;20127;-70
2023/10/21 09:49:13;;;;;;;12.60;6.78;;;14.20;99.90;;;;;;5020184;28;20065;-70
2023/10/21 09:52:09;;;;;;;16.58;6.60;;;14.20;99.90;;;;;;4998072;28;20100;-70
2023/10/21 09:55:03;;;;;;;12.57;6.40;;;14.10;99.90;;;;;;4993689;28;20056;-69
2023/10/21 09:57:29;;;;;;;10.85;6.22;;;14.20;99.90;;;;;;4996374;28;20623;-74
2023/10/21 09:59:56;;;;;;;11.98;5.57;;;14.10;99.90;;;;;;4986615;28;20418;-68
2023/10/21 10:02:22;;;;;;;12.70;6.03;;;14.00;99.90;;;;;;5002163;28;20053;-70
2023/10/21 10:04:49;;;;;;;13.80;6.95;;;14.00;99.90;;;;;;5000776;28;20052;-70
2023/10/21 10:07:17;;;;;;;14.38;6.45;;;13.90;99.90;;;;;;5005549;28;20048;-70
2023/10/21 10:09:44;;;;;;;10.45;6.22;;;13.80;99.90;;;;;;5020501;28;20033;-69
2023/10/21 10:12:16;;;;;;;11.98;7.07;;;13.70;99.90;;;;;;5006717;28;20436;-70
2023/10/21 10:14:43;;;;;;;12.80;7.93;;;13.70;99.90;;;;;;5020878;28;20037;-70
2023/10/21 10:17:09;;;;;;;15.18;7.32;;;13.60;99.90;;;;;;4996890;28;20107;-70
2023/10/21 10:19:37;;;;;;;12.38;7.43;;;13.60;99.90;;;;;;5021342;28;20057;-70
2023/10/21 10:22:19;;;;;;;13.70;6.88;;;13.50;99.90;;;;;;5020742;28;20128;-69
2023/10/21 10:24:55;;;;;;;12.40;6.05;;;13.50;99.90;;;;;;5012609;28;20040;-70
2023/10/21 10:27:34;;;;;;;12.93;5.80;;;13.50;99.90;;;;;;5019836;28;20066;-70
2023/10/21 10:30:00;;;;;;;9.23;5.93;;;13.50;99.90;;;;;;5017180;28;20045;-70
2023/10/21 10:32:29;;;;;;;11.73;6.07;;;13.60;99.90;;;;;;5020491;28;20052;-70
2023/10/21 10:34:57;;;;;;;10.80;6.22;;;13.60;99.90;;;;;;5001085;28;20124;-68
2023/10/21 10:37:33;;;;;;;9.32;6.13;;;13.60;99.90;;;;;;5004484;28;20053;-69
2023/10/21 10:40:05;;;;;;;9.88;5.93;;;13.60;99.90;;;;;;5000673;28;20057;-70
2023/10/21 10:42:34;;;;;;;9.73;5.32;;;13.60;99.90;;;;;;5017718;28;20076;-68
2023/10/21 10:45:00;;;;;;;8.65;5.90;;;13.60;99.90;;;;;;4998395;28;20044;-69
2023/10/21 10:47:29;;;;;;;9.18;6.60;;;13.60;99.90;;;;;;5013409;28;20050;-69
2023/10/21 10:49:59;;;;;;;8.02;5.03;;;13.60;99.90;;;;;;5000014;28;20351;-68
2023/10/21 10:52:35;;;;;;;7.75;4.85;;;13.60;99.90;;;;;;5002615;28;20132;-68
2023/10/21 10:55:08;;;;;;;6.05;3.33;;;13.50;99.90;;;;;;5001241;28;20103;-69
2023/10/21 10:57:34;;;;;;;10.00;4.38;;;13.50;99.90;;;;;;4998226;28;20232;-69
2023/10/21 10:59:59;;;;;;;7.43;4.15;;;13.50;99.90;;;;;;5000293;28;20397;-68
2023/10/21 11:02:44;;;;;;;5.50;3.92;;;13.50;99.90;;;;;;4995418;28;20046;-69
2023/10/21 11:05:20;;;;;;;6.90;3.90;;;13.70;99.90;;;;;;4992853;28;20161;-69
2023/10/21 11:07:47;;;;;;;6.95;3.88;;;13.70;99.90;;;;;;4998709;28;20423;-66
2023/10/21 11:10:18;;;;;;;5.35;3.60;;;13.80;99.90;;;;;;4999944;28;20049;-65
2023/10/21 11:12:44;;;;;;;7.03;3.08;;;13.90;99.90;;;;;;4993693;28;20037;-66
2023/10/21 11:15:12;;;;;;;5.22;2.85;;;13.90;99.90;;;;;;4997541;28;20054;-66
2023/10/21 11:17:39;;;;;;;5.25;3.00;;;14.00;99.90;;;;;;4996157;28;20129;-66
2023/10/21 11:20:08;;;;;;;4.07;2.63;;;14.20;99.90;;;;;;4998988;28;20041;-66
2023/10/21 11:22:34;;;;;;;3.22;2.72;;;14.30;99.90;;;;;;4995152;28;20052;-66
2023/10/21 11:25:02;;;;;;;4.20;2.50;;;14.30;99.90;;;;;;4992071;28;20050;-66
2023/10/21 11:27:28;;;;;;;3.47;2.03;;;14.30;99.90;;;;;;4993960;28;20430;-66
2023/10/21 11:29:55;;;;;;;5.03;2.55;;;14.20;99.90;;;;;;5021234;28;20045;-67
2023/10/21 11:32:30;;;;;;;4.47;2.05;;;14.30;99.90;;;;;;4992276;28;20045;-67
2023/10/21 11:35:01;;;;;;;3.55;1.90;;;14.20;99.90;;;;;;4990751;28;20129;-67
2023/10/21 11:37:27;;;;;;;4.28;2.10;;;14.20;99.90;;;;;;4991504;28;20117;-67
2023/10/21 11:39:52;;;;;;;4.43;1.90;;;14.10;99.90;;;;;;4998797;28;20882;-67
2023/10/21 11:42:19;;;;;;;4.13;1.63;;;14.10;99.90;;;;;;4997351;28;20038;-67
2023/10/21 11:44:57;;;;;;;2.95;1.92;;;14.10;99.90;;;;;;4992864;28;20053;-67
2023/10/21 11:47:27;;;;;;;2.83;1.48;;;14.00;99.90;;;;;;4992453;28;20042;-67
2023/10/21 11:49:55;;;;;;;3.53;1.50;;;14.00;99.90;;;;;;5001562;28;20050;-67
2023/10/21 11:52:22;;;;;;;5.82;1.90;;;14.00;99.90;;;;;;4992723;28;20039;-67
2023/10/21 11:57:56;;;;;;;3.08;1.40;;;14.00;99.90;;;;;;4990873;28;20687;-68
2023/10/21 12:02:20;;;;;;;5.07;1.27;;;14.00;99.90;;;;;;4976241;28;20077;-67
2023/10/21 12:07:15;;;;;;;3.63;1.30;;;14.00;99.90;;;;;;4991743;28;20497;-67
2023/10/21 12:19:48;;;;;;;3.65;1.20;;;14.30;99.90;;;;;;4991679;28;20053;-68
2023/10/21 12:36:32;;;;;;;3.92;1.42;;;14.70;99.90;;;;;;4997592;28;20054;-69
2023/10/21 12:38:38;;;;;;;4.50;1.20;;;14.70;99.90;;;;;;4991702;28;20104;-69
2023/10/21 12:43:48;;;;;;;3.53;1.30;;;14.70;99.90;;;;;;4991503;28;20050;-69
2023/10/21 12:46:22;;;;;;;6.63;1.35;;;14.80;99.90;;;;;;4994333;28;20461;-69
2023/10/21 12:48:52;;;;;;;5.68;1.60;;;14.80;99.90;;;;;;4996927;28;20494;-69
2023/10/21 12:51:28;;;;;;;4.82;1.40;;;14.90;99.90;;;;;;4994597;28;20510;-69
2023/10/21 12:53:53;;;;;;;4.72;1.10;;;14.90;99.90;;;;;;4996011;28;20050;-70
2023/10/21 12:56:19;;;;;;;3.97;1.50;;;14.90;99.90;;;;;;4993214;28;20050;-69
2023/10/21 12:58:45;;;;;;;4.22;1.15;;;14.90;99.90;;;;;;4995246;28;20073;-70
2023/10/21 13:01:12;;;;;;;4.00;1.30;;;14.80;99.90;;;;;;4988319;28;20061;-69
2023/10/21 13:03:39;;;;;;;10.02;1.30;;;14.80;99.90;;;;;;4995056;28;20070;-69
2023/10/21 13:06:06;;;;;;;4.38;1.42;;;14.80;99.90;;;;;;4997668;28;20736;-69